createdAt,value
2022-11-22T03:36:03.390Z,7.47
2022-11-22T03:36:36.359Z,7.53
2022-11-22T03:37:36.466Z,7.50
2022-11-22T03:38:36.447Z,7.44
2022-11-22T03:39:36.514Z,7.49
2022-11-22T03:40:36.561Z,7.52
2022-11-22T03:41:36.818Z,7.49
2022-11-22T03:42:36.662Z,7.52
2022-11-22T03:43:36.697Z,7.45
2022-11-22T03:44:36.712Z,7.41
2022-11-22T03:45:36.757Z,7.49
2022-11-22T03:46:36.827Z,7.49
2022-11-22T03:47:36.936Z,7.44
2022-11-22T03:48:36.910Z,7.50
2022-11-22T03:49:36.938Z,7.55
2022-11-22T03:50:36.969Z,7.47
2022-11-22T03:51:37.019Z,7.47
2022-11-22T03:52:37.128Z,7.59
2022-11-22T03:53:37.694Z,7.67
2022-11-22T03:54:37.197Z,7.59
2022-11-22T03:55:37.206Z,7.60
2022-11-22T03:56:37.247Z,7.62
2022-11-22T03:57:37.740Z,7.59
2022-11-22T03:58:37.386Z,7.59
2022-11-22T03:59:37.555Z,7.62
2022-11-22T04:00:44.174Z,7.63
2022-11-22T04:01:37.617Z,7.45
2022-11-22T04:02:42.200Z,7.59
2022-11-22T04:03:38.394Z,7.58
2022-11-22T04:04:37.758Z,7.53
2022-11-22T04:05:37.647Z,7.59
2022-11-22T05:26:15.181Z,8.22
2022-11-22T05:26:48.126Z,8.15
2022-11-22T05:27:48.931Z,8.22
2022-11-22T05:28:48.235Z,8.22
2022-11-22T05:29:48.252Z,8.20
2022-11-22T05:30:48.301Z,8.33
2022-11-22T05:31:51.356Z,8.20
2022-11-22T05:32:48.401Z,8.25
2022-11-22T05:33:50.352Z,8.22
2022-11-22T05:34:49.368Z,8.25
2022-11-22T05:35:49.572Z,8.28
2022-11-22T05:37:09.779Z,8.32
2022-11-22T05:37:48.648Z,8.25
2022-11-22T05:38:49.415Z,8.20
2022-11-22T05:39:50.399Z,8.18
2022-11-22T05:40:48.881Z,8.10
2022-11-22T05:41:48.780Z,8.14
2022-11-22T05:42:48.842Z,8.11
2022-11-22T05:43:48.861Z,8.11
2022-11-22T05:44:49.495Z,8.15
2022-11-22T05:45:50.861Z,8.14
2022-11-22T05:46:49.127Z,8.17
2022-11-22T05:47:49.171Z,8.14
2022-11-22T05:48:49.110Z,8.15
2022-11-22T05:49:49.231Z,8.17
2022-11-22T05:50:52.903Z,8.15
2022-11-22T05:51:49.250Z,8.10
2022-11-22T05:52:49.283Z,8.02
2022-11-22T06:12:15.134Z,8.12
2022-11-22T06:13:15.143Z,8.15
2022-11-22T06:14:15.877Z,8.08
2022-11-22T06:15:15.242Z,8.10
2022-11-22T06:16:15.277Z,8.11
2022-11-22T06:17:15.322Z,8.10
2022-11-22T06:18:15.361Z,8.14
2022-11-22T06:19:17.432Z,8.17
2022-11-22T06:20:16.331Z,8.12
2022-11-22T06:21:15.605Z,8.12
2022-11-22T06:22:15.573Z,8.08
2022-11-22T06:23:18.469Z,8.02
2022-11-22T06:24:15.728Z,8.10
2022-11-22T06:25:15.669Z,8.11
2022-11-22T06:26:15.773Z,8.11
2022-11-22T06:27:16.468Z,8.17
2022-11-22T06:28:16.378Z,8.15
2022-11-22T06:29:17.903Z,8.28
2022-11-22T06:30:20.884Z,8.20
2022-11-22T06:31:16.021Z,8.21
2022-11-22T06:32:16.861Z,8.25
2022-11-22T06:33:16.206Z,8.26
2022-11-22T06:34:16.083Z,8.29
2022-11-22T06:35:16.164Z,8.15
2022-11-22T06:36:17.916Z,8.21
2022-11-22T06:37:16.243Z,8.22
2022-11-22T06:38:16.306Z,8.28
2022-11-22T06:39:23.874Z,8.30
2022-11-22T06:40:16.360Z,8.22
2022-11-22T06:41:16.452Z,8.22
2022-11-22T06:42:17.338Z,8.22
2022-11-22T06:43:16.576Z,8.28
2022-11-22T06:44:17.459Z,8.20
2022-11-22T06:45:17.349Z,8.25
2022-11-22T06:46:16.821Z,8.26
2022-11-22T06:47:16.653Z,8.25
2022-11-22T06:48:16.850Z,8.20
2022-11-22T06:49:16.766Z,8.26
2022-11-22T06:50:21.532Z,8.22
2022-11-22T06:51:16.834Z,8.29
2022-11-22T06:52:16.911Z,8.33
2022-11-22T06:53:32.638Z,8.29
2022-11-22T06:54:16.973Z,8.30
2022-11-22T06:55:48.518Z,8.33
2022-11-22T06:56:17.062Z,8.26
2022-11-22T06:57:17.177Z,8.21
2022-11-22T06:58:17.157Z,8.25
2022-11-22T06:59:17.201Z,8.25
2022-11-22T07:00:35.407Z,8.25
2022-11-22T07:01:17.328Z,8.22
2022-11-22T07:02:17.841Z,8.32
2022-11-22T07:03:18.372Z,8.22
2022-11-22T07:04:28.630Z,8.28
2022-11-22T07:05:25.651Z,8.30
2022-11-22T07:06:39.472Z,8.22
2022-11-22T07:07:20.487Z,8.22
2022-11-22T07:08:17.612Z,8.28
2022-11-22T07:09:20.391Z,8.17
2022-11-22T07:10:17.726Z,8.11
2022-11-22T07:11:17.733Z,8.11
2022-11-22T07:12:17.794Z,8.18
2022-11-22T07:13:17.828Z,8.20
2022-11-22T07:14:18.879Z,8.28
2022-11-22T07:15:19.904Z,8.17
2022-11-22T07:16:18.871Z,8.28
2022-11-22T07:17:17.995Z,8.26
2022-11-22T07:18:18.105Z,8.20
2022-11-22T07:19:18.100Z,8.15
2022-11-22T07:20:28.981Z,8.18
2022-11-22T07:21:23.425Z,8.11
2022-11-22T07:29:37.129Z,7.99
2022-11-22T07:30:09.696Z,7.92
2022-11-22T07:31:09.752Z,7.90
2022-11-22T07:32:09.872Z,7.89
2022-11-22T07:33:09.836Z,7.97
2022-11-22T07:34:09.869Z,7.93
2022-11-22T07:35:09.957Z,7.92
2022-11-22T07:36:09.965Z,7.92
2022-11-22T07:37:10.005Z,7.96
2022-11-22T07:38:10.081Z,7.96
2022-11-22T07:39:10.098Z,7.87
2022-11-22T07:40:19.433Z,7.87
2022-11-22T07:41:10.204Z,7.89
2022-11-22T07:42:10.233Z,7.89
2022-11-22T07:43:10.266Z,7.81
2022-11-22T07:44:10.310Z,7.79
2022-11-22T07:45:10.371Z,7.75
2022-11-22T07:46:10.477Z,7.82
2022-11-22T07:47:10.491Z,7.84
2022-11-22T07:48:10.495Z,7.81
2022-11-22T07:49:10.544Z,7.79
2022-11-22T07:50:38.591Z,7.71
2022-11-22T07:51:10.743Z,7.85
2022-11-22T07:52:11.118Z,7.78
2022-11-22T07:53:10.730Z,7.75
2022-11-22T08:33:59.380Z,8.14
2022-11-22T08:34:47.546Z,8.14
2022-11-22T08:35:47.413Z,8.14
2022-11-22T08:36:47.466Z,8.14
2022-11-22T08:37:47.495Z,8.29
2022-11-22T08:38:47.560Z,8.18
2022-11-22T08:39:47.796Z,8.12
2022-11-22T08:40:47.629Z,8.20
2022-11-22T08:41:47.667Z,8.22
2022-11-22T08:42:47.723Z,8.39
2022-11-22T08:43:47.770Z,8.53
2022-11-22T08:44:47.799Z,8.60
2022-11-22T08:45:47.866Z,8.66
2022-11-22T10:33:31.996Z,8.33
2022-11-22T10:33:55.499Z,8.33
2022-11-22T10:35:00.572Z,8.30
2022-11-22T10:35:57.095Z,8.33
2022-11-22T10:37:17.454Z,8.32
2022-11-22T10:37:55.620Z,8.47
2022-11-22T10:38:58.700Z,8.42
2022-11-22T10:39:57.538Z,8.45
2022-11-22T10:40:55.808Z,8.42
2022-11-22T10:41:55.946Z,8.53
2022-11-22T10:42:55.893Z,8.51
2022-11-22T10:43:55.954Z,8.55
2022-11-22T10:44:56.039Z,8.55
2022-11-22T10:45:56.007Z,8.51
2022-11-22T10:47:17.571Z,8.45
2022-11-22T10:47:59.412Z,8.48
2022-11-22T10:48:56.786Z,8.53
2022-11-22T10:49:56.485Z,8.65
2022-11-22T10:51:01.129Z,8.63
2022-11-22T10:51:56.319Z,8.79
2022-11-22T10:52:58.092Z,8.73
2022-11-22T10:54:01.915Z,8.73
2022-11-22T10:55:08.104Z,8.81
2022-11-22T10:55:56.514Z,8.84
2022-11-22T10:56:57.064Z,8.81
2022-11-22T10:57:56.630Z,8.86
2022-11-22T10:58:56.672Z,8.79
2022-11-22T10:59:56.751Z,8.88
2022-11-22T11:01:18.704Z,8.90
2022-11-22T11:01:57.672Z,8.90
2022-11-22T11:02:56.933Z,8.81
2022-11-22T11:04:16.067Z,8.76
2022-11-22T11:04:56.941Z,8.87
2022-11-22T11:07:12.218Z,8.87
2022-11-22T11:08:15.232Z,8.84
2022-11-22T11:10:21.614Z,8.84
2022-11-22T11:10:57.780Z,8.84
2022-11-22T11:11:57.291Z,8.75
2022-11-22T11:12:57.266Z,8.83
2022-11-22T11:13:57.313Z,8.84
2022-11-22T11:15:12.651Z,8.76
2022-11-22T11:15:57.470Z,8.75
2022-11-22T11:16:57.450Z,8.75
2022-11-22T11:17:57.487Z,8.73
2022-11-22T11:18:57.643Z,8.76
2022-11-22T11:19:57.596Z,8.79
2022-11-22T11:20:58.601Z,8.73
2022-11-22T11:21:57.913Z,8.76
2022-11-22T11:23:15.140Z,8.84
2022-11-22T11:23:58.278Z,8.83
2022-11-22T11:24:57.754Z,8.84
2022-11-22T11:26:05.559Z,8.86
2022-11-22T11:26:58.709Z,8.76
2022-11-22T11:27:57.878Z,8.83
2022-11-22T11:28:57.994Z,8.87
2022-11-22T11:29:58.864Z,8.84
2022-11-22T11:30:58.061Z,8.88
2022-11-22T11:31:58.451Z,8.87
2022-11-22T11:32:58.233Z,8.90
